sensor_id;sensor_type;location;lat;lon;timestamp;pressure;altitude;pressure_sealevel;temperature;humidity
6347;BME280;3206;42.666;23.600;2023-02-19T07:46:53;95629.94;;;9.09;100.00
6347;BME280;3206;42.666;23.600;2023-02-19T07:49:19;95619.44;;;10.45;100.00
6347;BME280;3206;42.666;23.600;2023-02-19T07:51:46;95631.38;;;12.65;88.62
6347;BME280;3206;42.666;23.600;2023-02-19T07:54:13;95638.84;;;14.15;76.15
6347;BME280;3206;42.666;23.600;2023-02-19T07:56:39;95640.38;;;13.39;73.31
6347;BME280;3206;42.666;23.600;2023-02-19T07:59:06;95630.88;;;12.47;77.00
6347;BME280;3206;42.666;23.600;2023-02-19T08:01:33;95637.16;;;12.03;81.22
6347;BME280;3206;42.666;23.600;2023-02-19T08:04:19;95624.41;;;12.36;79.15
6347;BME280;3206;42.666;23.600;2023-02-19T08:06:46;95631.00;;;12.15;82.13
6347;BME280;3206;42.666;23.600;2023-02-19T08:09:13;95627.78;;;11.85;84.72
6347;BME280;3206;42.666;23.600;2023-02-19T08:11:40;95628.88;;;11.72;86.17
6347;BME280;3206;42.666;23.600;2023-02-19T08:14:24;95626.34;;;11.76;90.32
6347;BME280;3206;42.666;23.600;2023-02-19T08:16:51;95617.34;;;12.56;86.92
6347;BME280;3206;42.666;23.600;2023-02-19T08:19:19;95626.22;;;14.00;77.34
6347;BME280;3206;42.666;23.600;2023-02-19T08:21:46;95629.94;;;13.80;73.50
6347;BME280;3206;42.666;23.600;2023-02-19T08:24:14;95635.97;;;13.31;75.85
6347;BME280;3206;42.666;23.600;2023-02-19T08:26:41;95638.34;;;12.93;76.61
6347;BME280;3206;42.666;23.600;2023-02-19T08:29:08;95628.91;;;13.11;77.56
6347;BME280;3206;42.666;23.600;2023-02-19T08:31:35;95630.25;;;13.05;77.10
6347;BME280;3206;42.666;23.600;2023-02-19T08:34:01;95630.03;;;13.10;78.35
6347;BME280;3206;42.666;23.600;2023-02-19T08:36:30;95622.28;;;13.20;78.69
6347;BME280;3206;42.666;23.600;2023-02-19T08:38:56;95630.22;;;13.17;76.04
6347;BME280;3206;42.666;23.600;2023-02-19T08:41:23;95626.66;;;13.13;76.13
6347;BME280;3206;42.666;23.600;2023-02-19T08:43:50;95627.25;;;13.07;76.37
6347;BME280;3206;42.666;23.600;2023-02-19T08:46:16;95624.09;;;13.32;76.75
6347;BME280;3206;42.666;23.600;2023-02-19T08:48:43;95612.09;;;13.41;73.15
6347;BME280;3206;42.666;23.600;2023-02-19T08:51:10;95618.34;;;13.61;74.14
6347;BME280;3206;42.666;23.600;2023-02-19T08:53:39;95597.22;;;13.44;73.84
6347;BME280;3206;42.666;23.600;2023-02-19T08:56:07;95601.63;;;13.52;73.31
6347;BME280;3206;42.666;23.600;2023-02-19T08:58:34;95583.00;;;13.28;72.54
6347;BME280;3206;42.666;23.600;2023-02-19T09:01:01;95596.50;;;13.47;71.03
6347;BME280;3206;42.666;23.600;2023-02-19T09:03:28;95594.44;;;13.56;69.52
6347;BME280;3206;42.666;23.600;2023-02-19T09:05:55;95593.41;;;13.60;69.79
6347;BME280;3206;42.666;23.600;2023-02-19T09:08:21;95584.34;;;14.15;68.15
6347;BME280;3206;42.666;23.600;2023-02-19T09:10:57;95583.75;;;14.75;66.60
6347;BME280;3206;42.666;23.600;2023-02-19T09:13:24;95576.50;;;15.16;63.86
6347;BME280;3206;42.666;23.600;2023-02-19T09:15:51;95579.19;;;16.03;63.27
6347;BME280;3206;42.666;23.600;2023-02-19T09:18:17;95580.34;;;16.05;61.03
6347;BME280;3206;42.666;23.600;2023-02-19T09:20:44;95566.34;;;16.74;59.05
6347;BME280;3206;42.666;23.600;2023-02-19T09:23:11;95571.19;;;16.95;60.23
6347;BME280;3206;42.666;23.600;2023-02-19T09:25:37;95572.44;;;16.71;57.80
6347;BME280;3206;42.666;23.600;2023-02-19T09:28:05;95559.09;;;16.49;58.28
6347;BME280;3206;42.666;23.600;2023-02-19T09:30:32;95562.34;;;16.35;58.91
6347;BME280;3206;42.666;23.600;2023-02-19T09:32:59;95560.25;;;15.99;59.50
6347;BME280;3206;42.666;23.600;2023-02-19T09:35:25;95545.44;;;15.64;61.29
6347;BME280;3206;42.666;23.600;2023-02-19T09:37:52;95549.41;;;15.70;60.26
6347;BME280;3206;42.666;23.600;2023-02-19T09:40:19;95551.13;;;15.81;60.34
6347;BME280;3206;42.666;23.600;2023-02-19T09:42:47;95559.69;;;15.87;60.23
6347;BME280;3206;42.666;23.600;2023-02-19T09:45:21;95555.69;;;15.77;60.43
6347;BME280;3206;42.666;23.600;2023-02-19T09:47:52;95551.94;;;15.85;60.84
6347;BME280;3206;42.666;23.600;2023-02-19T09:50:23;95555.06;;;16.36;58.90
6347;BME280;3206;42.666;23.600;2023-02-19T09:52:54;95552.44;;;16.72;57.72
6347;BME280;3206;42.666;23.600;2023-02-19T09:55:30;95549.28;;;16.67;58.20
6347;BME280;3206;42.666;23.600;2023-02-19T09:57:58;95552.66;;;17.26;57.07
6347;BME280;3206;42.666;23.600;2023-02-19T10:00:29;95535.94;;;17.50;56.62
6347;BME280;3206;42.666;23.600;2023-02-19T10:03:03;95528.03;;;18.25;55.04
6347;BME280;3206;42.666;23.600;2023-02-19T10:05:31;95532.09;;;17.98;55.05
6347;BME280;3206;42.666;23.600;2023-02-19T10:07:58;95529.53;;;18.19;54.72
6347;BME280;3206;42.666;23.600;2023-02-19T10:10:29;95523.94;;;17.91;54.52
6347;BME280;3206;42.666;23.600;2023-02-19T10:13:10;95518.16;;;17.89;54.54
6347;BME280;3206;42.666;23.600;2023-02-19T10:15:44;95508.22;;;18.07;54.02
6347;BME280;3206;42.666;23.600;2023-02-19T10:18:15;95499.13;;;18.36;53.93
6347;BME280;3206;42.666;23.600;2023-02-19T10:20:44;95496.88;;;18.45;53.42
6347;BME280;3206;42.666;23.600;2023-02-19T10:23:13;95487.53;;;18.32;54.33
6347;BME280;3206;42.666;23.600;2023-02-19T10:25:43;95486.47;;;17.89;54.66
6347;BME280;3206;42.666;23.600;2023-02-19T10:28:14;95486.81;;;17.81;53.98
6347;BME280;3206;42.666;23.600;2023-02-19T10:30:43;95473.22;;;17.27;55.24
6347;BME280;3206;42.666;23.600;2023-02-19T10:33:11;95465.28;;;17.44;55.65
6347;BME280;3206;42.666;23.600;2023-02-19T10:35:51;95463.97;;;17.28;54.38
6347;BME280;3206;42.666;23.600;2023-02-19T10:38:20;95462.97;;;17.03;55.55
6347;BME280;3206;42.666;23.600;2023-02-19T10:40:51;95453.72;;;17.04;56.22
6347;BME280;3206;42.666;23.600;2023-02-19T10:43:24;95449.78;;;17.34;55.82
6347;BME280;3206;42.666;23.600;2023-02-19T10:46:01;95436.72;;;17.40;55.08
6347;BME280;3206;42.666;23.600;2023-02-19T10:48:31;95428.63;;;17.43;56.68
6347;BME280;3206;42.666;23.600;2023-02-19T10:51:01;95427.56;;;17.51;55.24
6347;BME280;3206;42.666;23.600;2023-02-19T10:53:42;95431.50;;;17.64;54.58
6347;BME280;3206;42.666;23.600;2023-02-19T10:56:12;95408.41;;;17.74;55.34
6347;BME280;3206;42.666;23.600;2023-02-19T10:58:39;95398.41;;;17.85;54.22
6347;BME280;3206;42.666;23.600;2023-02-19T11:01:12;95399.31;;;18.06;53.43
6347;BME280;3206;42.666;23.600;2023-02-19T11:03:40;95398.13;;;18.04;52.77
6347;BME280;3206;42.666;23.600;2023-02-19T11:06:09;95395.56;;;18.28;52.53
6347;BME280;3206;42.666;23.600;2023-02-19T11:08:46;95374.28;;;18.27;52.11
6347;BME280;3206;42.666;23.600;2023-02-19T11:11:31;95402.63;;;18.61;50.78
6347;BME280;3206;42.666;23.600;2023-02-19T11:14:00;95382.97;;;19.09;50.55
6347;BME280;3206;42.666;23.600;2023-02-19T11:16:41;95376.81;;;19.43;49.95
6347;BME280;3206;42.666;23.600;2023-02-19T11:19:28;95347.47;;;20.42;47.78
6347;BME280;3206;42.666;23.600;2023-02-19T11:21:57;95366.63;;;20.82;46.72
6347;BME280;3206;42.666;23.600;2023-02-19T11:24:28;95367.47;;;21.30;45.93
6347;BME280;3206;42.666;23.600;2023-02-19T11:26:56;95360.13;;;22.08;44.50
6347;BME280;3206;42.666;23.600;2023-02-19T11:29:24;95356.69;;;22.04;43.37
6347;BME280;3206;42.666;23.600;2023-02-19T11:31:54;95345.41;;;22.35;43.39
6347;BME280;3206;42.666;23.600;2023-02-19T11:34:27;95345.72;;;22.44;44.35
6347;BME280;3206;42.666;23.600;2023-02-19T11:37:11;95350.31;;;22.51;44.01
6347;BME280;3206;42.666;23.600;2023-02-19T11:39:40;95343.97;;;21.53;43.96
6347;BME280;3206;42.666;23.600;2023-02-19T11:42:37;95335.59;;;20.83;45.34
6347;BME280;3206;42.666;23.600;2023-02-19T11:45:14;95337.16;;;20.16;45.82
6347;BME280;3206;42.666;23.600;2023-02-19T11:48:05;95328.47;;;19.38;47.27
6347;BME280;3206;42.666;23.600;2023-02-19T11:50:47;95319.56;;;19.13;48.06
6347;BME280;3206;42.666;23.600;2023-02-19T11:53:24;95315.28;;;18.98;48.55
6347;BME280;3206;42.666;23.600;2023-02-19T11:56:02;95301.38;;;19.10;49.93
6347;BME280;3206;42.666;23.600;2023-02-19T11:58:56;95311.47;;;19.17;47.70
6347;BME280;3206;42.666;23.600;2023-02-19T12:01:39;95307.59;;;18.97;47.35
6347;BME280;3206;42.666;23.600;2023-02-19T12:07:20;95299.06;;;18.92;48.84
6347;BME280;3206;42.666;23.600;2023-02-19T12:09:59;95285.91;;;19.00;49.13
6347;BME280;3206;42.666;23.600;2023-02-19T12:12:43;95286.69;;;19.11;49.82
6347;BME280;3206;42.666;23.600;2023-02-19T12:15:29;95282.03;;;19.33;48.35
6347;BME280;3206;42.666;23.600;2023-02-19T12:20:53;95259.59;;;19.11;49.98
6347;BME280;3206;42.666;23.600;2023-02-19T12:23:38;95269.25;;;19.37;48.56
6347;BME280;3206;42.666;23.600;2023-02-19T12:26:17;95263.06;;;19.36;48.95
6347;BME280;3206;42.666;23.600;2023-02-19T12:29:15;95257.97;;;19.63;47.78
6347;BME280;3206;42.666;23.600;2023-02-19T12:32:08;95260.28;;;19.57;47.35
6347;BME280;3206;42.666;23.600;2023-02-19T12:34:47;95251.44;;;19.39;46.56
6347;BME280;3206;42.666;23.600;2023-02-19T12:37:30;95243.72;;;19.31;45.75
6347;BME280;3206;42.666;23.600;2023-02-19T12:40:16;95244.03;;;19.57;46.04
6347;BME280;3206;42.666;23.600;2023-02-19T12:42:56;95221.09;;;19.76;47.01
6347;BME280;3206;42.666;23.600;2023-02-19T12:45:31;95215.66;;;19.86;45.41
6347;BME280;3206;42.666;23.600;2023-02-19T12:48:05;95217.50;;;20.00;45.17
6347;BME280;3206;42.666;23.600;2023-02-19T12:50:39;95212.47;;;19.98;45.45
6347;BME280;3206;42.666;23.600;2023-02-19T12:53:11;95200.88;;;19.94;45.54
6347;BME280;3206;42.666;23.600;2023-02-19T12:55:43;95204.41;;;19.84;46.58
6347;BME280;3206;42.666;23.600;2023-02-19T12:58:15;95193.91;;;19.97;46.26
6347;BME280;3206;42.666;23.600;2023-02-19T13:00:48;95182.59;;;20.09;44.84
6347;BME280;3206;42.666;23.600;2023-02-19T13:03:20;95183.00;;;20.00;45.41
6347;BME280;3206;42.666;23.600;2023-02-19T13:05:50;95181.31;;;20.27;44.87
6347;BME280;3206;42.666;23.600;2023-02-19T13:08:22;95175.69;;;20.55;44.03
6347;BME280;3206;42.666;23.600;2023-02-19T13:10:56;95172.97;;;20.55;43.38
6347;BME280;3206;42.666;23.600;2023-02-19T13:13:27;95168.34;;;20.52;43.72
6347;BME280;3206;42.666;23.600;2023-02-19T13:15:59;95174.72;;;20.28;43.11
6347;BME280;3206;42.666;23.600;2023-02-19T13:18:31;95166.16;;;20.33;43.55
6347;BME280;3206;42.666;23.600;2023-02-19T13:21:01;95161.78;;;20.46;43.13
6347;BME280;3206;42.666;23.600;2023-02-19T13:23:30;95154.53;;;20.36;42.53
6347;BME280;3206;42.666;23.600;2023-02-19T13:26:45;95151.25;;;20.55;42.86
6347;BME280;3206;42.666;23.600;2023-02-19T13:29:26;95145.53;;;20.83;43.48
6347;BME280;3206;42.666;23.600;2023-02-19T13:32:12;95144.84;;;21.46;43.06
6347;BME280;3206;42.666;23.600;2023-02-19T13:34:53;95136.09;;;21.65;42.43
6347;BME280;3206;42.666;23.600;2023-02-19T13:37:24;95130.75;;;21.88;42.92
6347;BME280;3206;42.666;23.600;2023-02-19T13:39:52;95129.91;;;22.67;40.65
6347;BME280;3206;42.666;23.600;2023-02-19T13:42:25;95127.19;;;23.28;40.54
6347;BME280;3206;42.666;23.600;2023-02-19T13:44:53;95123.13;;;24.11;39.56
6347;BME280;3206;42.666;23.600;2023-02-19T13:47:45;95119.16;;;24.63;37.28
6347;BME280;3206;42.666;23.600;2023-02-19T13:50:18;95119.97;;;24.28;36.40
6347;BME280;3206;42.666;23.600;2023-02-19T13:52:45;95102.38;;;24.13;38.48
6347;BME280;3206;42.666;23.600;2023-02-19T13:58:50;95111.22;;;23.85;37.46
6347;BME280;3206;42.666;23.600;2023-02-19T14:01:19;95104.13;;;23.13;37.18
6347;BME280;3206;42.666;23.600;2023-02-19T14:04:08;95100.81;;;23.02;38.41
6347;BME280;3206;42.666;23.600;2023-02-19T14:09:45;95090.97;;;23.47;37.89
6347;BME280;3206;42.666;23.600;2023-02-19T14:12:19;95084.66;;;23.34;37.42
6347;BME280;3206;42.666;23.600;2023-02-19T14:14:48;95087.84;;;23.10;38.12
6347;BME280;3206;42.666;23.600;2023-02-19T14:17:26;95088.44;;;22.79;38.08
6347;BME280;3206;42.666;23.600;2023-02-19T14:19:55;95088.41;;;23.02;38.42
6347;BME280;3206;42.666;23.600;2023-02-19T14:25:48;95083.22;;;22.45;39.02
6347;BME280;3206;42.666;23.600;2023-02-19T14:28:28;95081.94;;;22.27;38.51
6347;BME280;3206;42.666;23.600;2023-02-19T14:31:02;95071.53;;;22.68;38.81
6347;BME280;3206;42.666;23.600;2023-02-19T14:33:36;95064.16;;;24.61;37.14
6347;BME280;3206;42.666;23.600;2023-02-19T14:36:09;95061.25;;;25.91;36.05
6347;BME280;3206;42.666;23.600;2023-02-19T14:38:44;95068.47;;;26.81;34.25
6347;BME280;3206;42.666;23.600;2023-02-19T14:41:13;95063.19;;;27.51;33.21
6347;BME280;3206;42.666;23.600;2023-02-19T14:43:41;95065.19;;;27.72;33.03
6347;BME280;3206;42.666;23.600;2023-02-19T14:46:16;95058.50;;;27.30;33.27
6347;BME280;3206;42.666;23.600;2023-02-19T14:48:47;95056.53;;;26.75;33.33
6347;BME280;3206;42.666;23.600;2023-02-19T14:51:22;95048.19;;;25.70;33.94
6347;BME280;3206;42.666;23.600;2023-02-19T14:53:51;95047.75;;;25.18;34.59
6347;BME280;3206;42.666;23.600;2023-02-19T14:56:21;95041.09;;;24.46;35.54
6347;BME280;3206;42.666;23.600;2023-02-19T14:59:04;95034.78;;;23.69;36.19
6347;BME280;3206;42.666;23.600;2023-02-19T15:01:32;95042.50;;;23.19;36.80
6347;BME280;3206;42.666;23.600;2023-02-19T15:03:59;95043.75;;;22.96;38.15
6347;BME280;3206;42.666;23.600;2023-02-19T15:06:27;95037.97;;;23.13;36.83
6347;BME280;3206;42.666;23.600;2023-02-19T15:08:58;95039.19;;;22.89;38.32
6347;BME280;3206;42.666;23.600;2023-02-19T15:11:29;95025.78;;;21.67;39.59
6347;BME280;3206;42.666;23.600;2023-02-19T15:13:58;95024.72;;;20.31;43.00
6347;BME280;3206;42.666;23.600;2023-02-19T15:16:27;95027.81;;;20.70;41.84
6347;BME280;3206;42.666;23.600;2023-02-19T15:18:57;95027.34;;;20.75;42.61
6347;BME280;3206;42.666;23.600;2023-02-19T15:21:26;95023.50;;;20.39;43.22
6347;BME280;3206;42.666;23.600;2023-02-19T15:23:55;95019.84;;;20.16;44.21
6347;BME280;3206;42.666;23.600;2023-02-19T15:26:25;95017.66;;;19.97;44.69
6347;BME280;3206;42.666;23.600;2023-02-19T15:28:59;95017.91;;;19.65;44.82
6347;BME280;3206;42.666;23.600;2023-02-19T15:31:26;95023.63;;;19.23;47.10
6347;BME280;3206;42.666;23.600;2023-02-19T15:33:53;95019.81;;;19.07;47.30
6347;BME280;3206;42.666;23.600;2023-02-19T15:36:29;95021.81;;;18.96;47.30
6347;BME280;3206;42.666;23.600;2023-02-19T15:38:58;95014.53;;;18.76;47.75
6347;BME280;3206;42.666;23.600;2023-02-19T15:41:27;95017.72;;;18.57;48.20
6347;BME280;3206;42.666;23.600;2023-02-19T15:44:04;95016.59;;;18.40;48.37
6347;BME280;3206;42.666;23.600;2023-02-19T15:46:35;95018.94;;;18.14;48.98
6347;BME280;3206;42.666;23.600;2023-02-19T15:49:06;95027.81;;;18.18;51.81
6347;BME280;3206;42.666;23.600;2023-02-19T15:51:40;95021.13;;;18.75;50.92
6347;BME280;3206;42.666;23.600;2023-02-19T15:54:15;95038.50;;;18.81;50.70
6347;BME280;3206;42.666;23.600;2023-02-19T15:56:45;95030.00;;;18.75;50.60
6347;BME280;3206;42.666;23.600;2023-02-19T15:59:20;95035.31;;;18.99;51.09
6347;BME280;3206;42.666;23.600;2023-02-19T16:01:49;95034.56;;;18.92;48.21
6347;BME280;3206;42.666;23.600;2023-02-19T16:04:17;95037.03;;;18.52;48.72
6347;BME280;3206;42.666;23.600;2023-02-19T16:06:54;95017.84;;;17.73;50.62
6347;BME280;3206;42.666;23.600;2023-02-19T16:09:26;95048.31;;;17.63;50.38
6347;BME280;3206;42.666;23.600;2023-02-19T16:11:54;95047.09;;;17.36;50.77
6347;BME280;3206;42.666;23.600;2023-02-19T16:14:28;95052.06;;;17.23;51.52
6347;BME280;3206;42.666;23.600;2023-02-19T16:16:57;95060.53;;;17.15;52.15
6347;BME280;3206;42.666;23.600;2023-02-19T16:19:27;95066.25;;;16.89;53.46
6347;BME280;3206;42.666;23.600;2023-02-19T16:21:56;95053.03;;;16.67;54.55
6347;BME280;3206;42.666;23.600;2023-02-19T16:24:26;95054.06;;;16.41;54.71
6347;BME280;3206;42.666;23.600;2023-02-19T16:26:54;95065.91;;;16.33;54.40
6347;BME280;3206;42.666;23.600;2023-02-19T16:29:24;95069.63;;;16.11;56.44
6347;BME280;3206;42.666;23.600;2023-02-19T16:31:54;95071.19;;;16.12;55.61
6347;BME280;3206;42.666;23.600;2023-02-19T16:34:33;95067.25;;;16.03;56.01
6347;BME280;3206;42.666;23.600;2023-02-19T16:37:31;95067.44;;;15.73;58.21
6347;BME280;3206;42.666;23.600;2023-02-19T16:43:26;95079.00;;;15.37;58.65
6347;BME280;3206;42.666;23.600;2023-02-19T16:45:55;95076.81;;;15.13;59.47
6347;BME280;3206;42.666;23.600;2023-02-19T16:48:23;95092.84;;;14.74;59.73
6347;BME280;3206;42.666;23.600;2023-02-19T16:50:49;95088.13;;;14.64;60.70
6347;BME280;3206;42.666;23.600;2023-02-19T16:53:19;95096.69;;;14.73;60.73
6347;BME280;3206;42.666;23.600;2023-02-19T16:55:46;95093.91;;;14.66;60.14
6347;BME280;3206;42.666;23.600;2023-02-19T16:58:13;95095.94;;;14.46;59.94
6347;BME280;3206;42.666;23.600;2023-02-19T17:00:39;95106.41;;;14.51;60.68
6347;BME280;3206;42.666;23.600;2023-02-19T17:03:09;95102.19;;;14.54;60.57
6347;BME280;3206;42.666;23.600;2023-02-19T17:05:37;95104.78;;;14.47;59.54
6347;BME280;3206;42.666;23.600;2023-02-19T17:08:23;95116.34;;;14.51;59.53
6347;BME280;3206;42.666;23.600;2023-02-19T17:10:51;95120.41;;;14.38;59.39
6347;BME280;3206;42.666;23.600;2023-02-19T17:13:17;95116.88;;;14.34;59.78
6347;BME280;3206;42.666;23.600;2023-02-19T17:15:44;95118.34;;;14.28;60.99
6347;BME280;3206;42.666;23.600;2023-02-19T17:18:11;95135.34;;;14.13;63.16
6347;BME280;3206;42.666;23.600;2023-02-19T17:20:38;95133.03;;;13.89;64.44
6347;BME280;3206;42.666;23.600;2023-02-19T17:23:05;95138.84;;;13.68;65.57
6347;BME280;3206;42.666;23.600;2023-02-19T17:25:33;95139.34;;;13.55;67.81
6347;BME280;3206;42.666;23.600;2023-02-19T17:28:00;95141.13;;;13.47;69.19
6347;BME280;3206;42.666;23.600;2023-02-19T17:30:28;95141.94;;;13.48;70.47
6347;BME280;3206;42.666;23.600;2023-02-19T17:32:55;95148.56;;;13.35;71.60
6347;BME280;3206;42.666;23.600;2023-02-19T17:35:22;95151.69;;;13.37;71.10
6347;BME280;3206;42.666;23.600;2023-02-19T17:37:49;95149.78;;;13.37;70.26
6347;BME280;3206;42.666;23.600;2023-02-19T17:40:20;95147.19;;;13.22;70.41
6347;BME280;3206;42.666;23.600;2023-02-19T17:42:48;95156.56;;;13.31;70.11
6347;BME280;3206;42.666;23.600;2023-02-19T17:45:15;95143.78;;;13.25;69.28
6347;BME280;3206;42.666;23.600;2023-02-19T17:47:42;95163.13;;;13.34;68.60
6347;BME280;3206;42.666;23.600;2023-02-19T17:50:11;95166.72;;;13.41;68.27
6347;BME280;3206;42.666;23.600;2023-02-19T17:52:39;95165.94;;;13.41;66.77
6347;BME280;3206;42.666;23.600;2023-02-19T17:55:06;95165.28;;;13.47;67.39
6347;BME280;3206;42.666;23.600;2023-02-19T17:57:33;95172.16;;;13.45;66.72
6347;BME280;3206;42.666;23.600;2023-02-19T18:00:02;95172.91;;;13.45;66.84
6347;BME280;3206;42.666;23.600;2023-02-19T18:02:29;95175.09;;;13.40;66.42
6347;BME280;3206;42.666;23.600;2023-02-19T18:04:56;95171.88;;;13.31;66.80
6347;BME280;3206;42.666;23.600;2023-02-19T18:07:22;95175.63;;;13.26;66.81
6347;BME280;3206;42.666;23.600;2023-02-19T18:09:49;95179.22;;;13.15;67.15
6347;BME280;3206;42.666;23.600;2023-02-19T18:12:16;95181.91;;;13.15;67.68
6347;BME280;3206;42.666;23.600;2023-02-19T18:14:44;95179.78;;;13.05;68.03
6347;BME280;3206;42.666;23.600;2023-02-19T18:17:12;95177.53;;;13.07;68.47
6347;BME280;3206;42.666;23.600;2023-02-19T18:19:42;95173.25;;;12.87;68.54
6347;BME280;3206;42.666;23.600;2023-02-19T18:22:09;95186.84;;;12.94;68.34
6347;BME280;3206;42.666;23.600;2023-02-19T18:24:36;95206.63;;;12.90;68.22
6347;BME280;3206;42.666;23.600;2023-02-19T18:27:02;95207.69;;;12.85;68.54
6347;BME280;3206;42.666;23.600;2023-02-19T18:29:29;95196.78;;;12.94;68.69
6347;BME280;3206;42.666;23.600;2023-02-19T18:31:57;95181.00;;;12.73;68.52
6347;BME280;3206;42.666;23.600;2023-02-19T18:34:25;95206.38;;;12.95;68.61
6347;BME280;3206;42.666;23.600;2023-02-19T18:36:52;95211.41;;;12.96;68.41
6347;BME280;3206;42.666;23.600;2023-02-19T18:39:18;95221.59;;;12.91;68.15
6347;BME280;3206;42.666;23.600;2023-02-19T18:41:46;95233.78;;;12.38;73.03
6347;BME280;3206;42.666;23.600;2023-02-19T18:44:16;95218.06;;;12.37;73.37
6347;BME280;3206;42.666;23.600;2023-02-19T18:46:43;95213.56;;;12.25;74.71
6347;BME280;3206;42.666;23.600;2023-02-19T18:49:09;95229.91;;;12.20;74.61
6347;BME280;3206;42.666;23.600;2023-02-19T18:51:37;95229.91;;;12.20;74.79
6347;BME280;3206;42.666;23.600;2023-02-19T18:54:04;95238.03;;;12.08;75.44
6347;BME280;3206;42.666;23.600;2023-02-19T18:56:39;95237.34;;;12.11;75.72
6347;BME280;3206;42.666;23.600;2023-02-19T18:59:06;95237.84;;;12.01;76.93
6347;BME280;3206;42.666;23.600;2023-02-19T19:01:32;95238.97;;;12.00;77.12
6347;BME280;3206;42.666;23.600;2023-02-19T19:03:59;95246.91;;;11.97;77.36
6347;BME280;3206;42.666;23.600;2023-02-19T19:06:26;95253.66;;;11.91;78.41
6347;BME280;3206;42.666;23.600;2023-02-19T19:08:54;95225.47;;;11.66;78.93
6347;BME280;3206;42.666;23.600;2023-02-19T19:11:22;95250.94;;;11.75;81.52
6347;BME280;3206;42.666;23.600;2023-02-19T19:13:49;95253.34;;;11.65;84.45
6347;BME280;3206;42.666;23.600;2023-02-19T19:16:16;95254.44;;;11.64;82.90
6347;BME280;3206;42.666;23.600;2023-02-19T19:18:43;95268.53;;;11.76;81.74
6347;BME280;3206;42.666;23.600;2023-02-19T19:21:13;95274.19;;;11.87;81.20
6347;BME280;3206;42.666;23.600;2023-02-19T19:23:40;95277.91;;;11.82;80.69
6347;BME280;3206;42.666;23.600;2023-02-19T19:26:09;95282.56;;;11.85;80.16
6347;BME280;3206;42.666;23.600;2023-02-19T19:28:36;95278.59;;;11.79;81.16
6347;BME280;3206;42.666;23.600;2023-02-19T19:31:08;95283.41;;;11.74;80.80
6347;BME280;3206;42.666;23.600;2023-02-19T19:33:35;95282.44;;;11.66;80.87
6347;BME280;3206;42.666;23.600;2023-02-19T19:36:02;95283.97;;;11.67;82.01
6347;BME280;3206;42.666;23.600;2023-02-19T19:38:29;95292.69;;;11.64;81.63
6347;BME280;3206;42.666;23.600;2023-02-19T19:40:56;95294.47;;;11.60;82.01
6347;BME280;3206;42.666;23.600;2023-02-19T19:43:26;95293.47;;;11.65;82.30
6347;BME280;3206;42.666;23.600;2023-02-19T19:45:53;95297.25;;;11.64;82.24
6347;BME280;3206;42.666;23.600;2023-02-19T19:48:19;95299.59;;;11.65;82.69
6347;BME280;3206;42.666;23.600;2023-02-19T19:50:46;95300.28;;;11.62;82.33
6347;BME280;3206;42.666;23.600;2023-02-19T19:53:13;95296.56;;;11.67;82.86
6347;BME280;3206;42.666;23.600;2023-02-19T19:55:40;95303.41;;;11.64;82.47
6347;BME280;3206;42.666;23.600;2023-02-19T19:58:07;95297.34;;;11.67;83.14
6347;BME280;3206;42.666;23.600;2023-02-19T20:00:35;95306.69;;;11.73;82.85
6347;BME280;3206;42.666;23.600;2023-02-19T20:03:01;95309.78;;;11.75;83.17
6347;BME280;3206;42.666;23.600;2023-02-19T20:05:28;95301.84;;;11.63;83.53
6347;BME280;3206;42.666;23.600;2023-02-19T20:07:55;95303.16;;;11.69;82.95
6347;BME280;3206;42.666;23.600;2023-02-19T20:10:21;95296.50;;;11.63;83.38
6347;BME280;3206;42.666;23.600;2023-02-19T20:12:48;95313.66;;;11.62;84.18
6347;BME280;3206;42.666;23.600;2023-02-19T20:15:18;95311.00;;;11.62;85.37
6347;BME280;3206;42.666;23.600;2023-02-19T20:17:47;95305.53;;;11.59;85.56
6347;BME280;3206;42.666;23.600;2023-02-19T20:20:15;95307.63;;;11.65;85.71
6347;BME280;3206;42.666;23.600;2023-02-19T20:22:42;95313.41;;;11.55;85.77
6347;BME280;3206;42.666;23.600;2023-02-19T20:25:08;95321.44;;;11.55;87.09
6347;BME280;3206;42.666;23.600;2023-02-19T20:27:35;95309.19;;;11.54;87.32
6347;BME280;3206;42.666;23.600;2023-02-19T20:30:03;95316.56;;;11.57;87.18
6347;BME280;3206;42.666;23.600;2023-02-19T20:32:30;95316.59;;;11.45;88.63
6347;BME280;3206;42.666;23.600;2023-02-19T20:34:58;95324.75;;;11.37;89.63
6347;BME280;3206;42.666;23.600;2023-02-19T20:37:24;95323.97;;;11.36;91.00
6347;BME280;3206;42.666;23.600;2023-02-19T20:39:51;95322.41;;;11.35;92.03
6347;BME280;3206;42.666;23.600;2023-02-19T20:42:18;95325.50;;;11.37;91.79
6347;BME280;3206;42.666;23.600;2023-02-19T20:44:45;95312.69;;;11.43;91.53
6347;BME280;3206;42.666;23.600;2023-02-19T20:47:11;95321.47;;;11.43;91.39
6347;BME280;3206;42.666;23.600;2023-02-19T20:49:44;95329.25;;;11.60;90.59
6347;BME280;3206;42.666;23.600;2023-02-19T20:52:14;95326.34;;;11.65;89.23
6347;BME280;3206;42.666;23.600;2023-02-19T20:54:41;95333.69;;;11.68;88.50
6347;BME280;3206;42.666;23.600;2023-02-19T20:57:09;95326.97;;;11.74;87.56
6347;BME280;3206;42.666;23.600;2023-02-19T20:59:36;95332.09;;;11.79;85.94
6347;BME280;3206;42.666;23.600;2023-02-19T21:02:07;95333.66;;;11.80;85.34
6347;BME280;3206;42.666;23.600;2023-02-19T21:04:36;95335.22;;;11.81;85.63
6347;BME280;3206;42.666;23.600;2023-02-19T21:07:03;95324.22;;;11.71;86.33
6347;BME280;3206;42.666;23.600;2023-02-19T21:09:31;95332.56;;;11.69;87.62
6347;BME280;3206;42.666;23.600;2023-02-19T21:11:58;95337.19;;;11.45;90.97
6347;BME280;3206;42.666;23.600;2023-02-19T21:14:25;95329.13;;;11.29;95.16
6347;BME280;3206;42.666;23.600;2023-02-19T21:16:52;95330.03;;;11.10;98.89
6347;BME280;3206;42.666;23.600;2023-02-19T21:19:19;95326.47;;;10.94;100.00
6347;BME280;3206;42.666;23.600;2023-02-19T21:21:45;95323.84;;;10.82;100.00
6347;BME280;3206;42.666;23.600;2023-02-19T21:24:13;95322.94;;;10.78;100.00
6347;BME280;3206;42.666;23.600;2023-02-19T21:26:42;95323.47;;;10.83;100.00
6347;BME280;3206;42.666;23.600;2023-02-19T21:29:13;95330.94;;;10.90;100.00
6347;BME280;3206;42.666;23.600;2023-02-19T21:31:42;95334.28;;;10.99;100.00
6347;BME280;3206;42.666;23.600;2023-02-19T21:34:10;95347.53;;;11.07;100.00